EGXW/WTN METAR and TAF weather

Enter ICAO airport designator
Station Type Date Time Source
EGXW METAR 2018/12/12 15:50 UTC NOAA

EGXW 121550Z 13008KT 9999 FEW030 03/00 Q1021 BLU NOSIG


Station Type Date Time Source
EGXW Decoded METAR 2018/12/12 15:50 UTC NOAA

Waddington, United Kingdom (EGXW) 53-10N 000-31W 0M
Dec 12, 2018 - 10:50 AM EST / 2018.12.12 1550 UTC
Wind: from the SE (130 degrees) at 9 MPH (8 KT):0
Visibility: greater than 7 mile(s):0
Sky conditions: mostly clear
Temperature: 37 F (3 C)
Dew Point: 32 F (0 C)
Relative Humidity: 80%
Pressure (altimeter): 30.15 in. Hg (1021 hPa)
ob: EGXW 121550Z 13008KT 9999 FEW030 03/00 Q1021 BLU NOSIG
cycle: 16

Station Type Date Time Source
EGXW TAF 2018/12/12 18:37 UTC NOAA

TAF EGXW 121624Z 1218/1312 13012KT 9999 FEW035 PROB30
TEMPO 1300/1306 SCT018


Example: see airport list